sensor_id;sensor_type;location;lat;lon;timestamp;P1;durP1;ratioP1;P2;durP2;ratioP2
35380;SDS011;21486;51.916;8.378;2023-04-08T00:00:56;14.23;;;9.00;;
35380;SDS011;21486;51.916;8.378;2023-04-08T00:03:22;12.73;;;8.53;;
35380;SDS011;21486;51.916;8.378;2023-04-08T00:05:47;12.97;;;8.97;;
35380;SDS011;21486;51.916;8.378;2023-04-08T00:08:13;13.02;;;8.70;;
35380;SDS011;21486;51.916;8.378;2023-04-08T00:10:38;12.98;;;8.82;;
35380;SDS011;21486;51.916;8.378;2023-04-08T00:13:04;14.35;;;9.02;;
35380;SDS011;21486;51.916;8.378;2023-04-08T00:15:29;14.50;;;9.07;;
35380;SDS011;21486;51.916;8.378;2023-04-08T00:17:55;13.17;;;8.77;;
35380;SDS011;21486;51.916;8.378;2023-04-08T00:20:21;14.80;;;8.97;;
35380;SDS011;21486;51.916;8.378;2023-04-08T00:22:48;14.70;;;9.27;;
35380;SDS011;21486;51.916;8.378;2023-04-08T00:25:13;14.90;;;9.53;;
35380;SDS011;21486;51.916;8.378;2023-04-08T00:27:39;13.10;;;8.70;;
35380;SDS011;21486;51.916;8.378;2023-04-08T00:33:01;12.57;;;9.10;;
35380;SDS011;21486;51.916;8.378;2023-04-08T00:35:28;14.65;;;9.52;;
35380;SDS011;21486;51.916;8.378;2023-04-08T00:37:53;12.90;;;9.27;;
35380;SDS011;21486;51.916;8.378;2023-04-08T00:40:19;13.53;;;8.50;;
35380;SDS011;21486;51.916;8.378;2023-04-08T00:42:45;13.53;;;9.23;;
35380;SDS011;21486;51.916;8.378;2023-04-08T00:45:10;11.80;;;8.57;;
35380;SDS011;21486;51.916;8.378;2023-04-08T00:47:37;12.85;;;8.73;;
35380;SDS011;21486;51.916;8.378;2023-04-08T00:50:03;14.35;;;9.10;;
35380;SDS011;21486;51.916;8.378;2023-04-08T00:52:28;14.70;;;8.57;;
35380;SDS011;21486;51.916;8.378;2023-04-08T00:54:54;15.30;;;9.23;;
35380;SDS011;21486;51.916;8.378;2023-04-08T00:57:20;16.10;;;9.37;;
35380;SDS011;21486;51.916;8.378;2023-04-08T00:59:45;15.87;;;9.93;;
35380;SDS011;21486;51.916;8.378;2023-04-08T01:02:18;13.70;;;9.40;;
35380;SDS011;21486;51.916;8.378;2023-04-08T01:07:47;15.63;;;10.20;;
35380;SDS011;21486;51.916;8.378;2023-04-08T01:10:25;15.90;;;9.65;;
35380;SDS011;21486;51.916;8.378;2023-04-08T01:12:54;19.77;;;10.40;;
35380;SDS011;21486;51.916;8.378;2023-04-08T01:15:21;17.60;;;9.93;;
35380;SDS011;21486;51.916;8.378;2023-04-08T01:17:51;14.93;;;9.77;;
35380;SDS011;21486;51.916;8.378;2023-04-08T01:20:18;15.13;;;9.80;;
35380;SDS011;21486;51.916;8.378;2023-04-08T01:22:50;14.57;;;9.70;;
35380;SDS011;21486;51.916;8.378;2023-04-08T01:25:31;15.63;;;9.38;;
35380;SDS011;21486;51.916;8.378;2023-04-08T01:28:03;13.98;;;9.50;;
35380;SDS011;21486;51.916;8.378;2023-04-08T01:30:40;15.73;;;9.48;;
35380;SDS011;21486;51.916;8.378;2023-04-08T01:33:08;14.38;;;9.52;;
35380;SDS011;21486;51.916;8.378;2023-04-08T01:35:36;15.80;;;9.40;;
35380;SDS011;21486;51.916;8.378;2023-04-08T01:38:02;15.55;;;9.55;;
35380;SDS011;21486;51.916;8.378;2023-04-08T01:40:31;15.65;;;9.75;;
35380;SDS011;21486;51.916;8.378;2023-04-08T01:42:59;15.02;;;9.80;;
35380;SDS011;21486;51.916;8.378;2023-04-08T01:45:25;13.90;;;9.10;;
35380;SDS011;21486;51.916;8.378;2023-04-08T01:47:52;13.07;;;9.27;;
35380;SDS011;21486;51.916;8.378;2023-04-08T01:50:19;14.77;;;9.43;;
35380;SDS011;21486;51.916;8.378;2023-04-08T01:52:47;16.83;;;9.03;;
35380;SDS011;21486;51.916;8.378;2023-04-08T01:55:13;12.93;;;8.60;;
35380;SDS011;21486;51.916;8.378;2023-04-08T01:57:40;13.73;;;9.00;;
35380;SDS011;21486;51.916;8.378;2023-04-08T02:00:11;15.18;;;9.15;;
35380;SDS011;21486;51.916;8.378;2023-04-08T02:02:39;15.80;;;9.18;;
35380;SDS011;21486;51.916;8.378;2023-04-08T02:05:08;13.93;;;8.82;;
35380;SDS011;21486;51.916;8.378;2023-04-08T02:07:33;13.77;;;8.77;;
35380;SDS011;21486;51.916;8.378;2023-04-08T02:09:59;16.02;;;9.20;;
35380;SDS011;21486;51.916;8.378;2023-04-08T02:12:24;14.60;;;8.20;;
35380;SDS011;21486;51.916;8.378;2023-04-08T02:14:52;20.58;;;8.65;;
35380;SDS011;21486;51.916;8.378;2023-04-08T02:17:24;14.63;;;8.50;;
35380;SDS011;21486;51.916;8.378;2023-04-08T02:20:15;14.23;;;8.38;;
35380;SDS011;21486;51.916;8.378;2023-04-08T02:25:12;14.70;;;8.77;;
35380;SDS011;21486;51.916;8.378;2023-04-08T02:27:40;14.53;;;8.97;;
35380;SDS011;21486;51.916;8.378;2023-04-08T02:30:06;12.97;;;8.33;;
35380;SDS011;21486;51.916;8.378;2023-04-08T02:32:34;13.63;;;8.23;;
35380;SDS011;21486;51.916;8.378;2023-04-08T02:35:00;11.50;;;8.27;;
35380;SDS011;21486;51.916;8.378;2023-04-08T02:37:27;13.60;;;8.88;;
35380;SDS011;21486;51.916;8.378;2023-04-08T02:39:54;12.37;;;8.00;;
35380;SDS011;21486;51.916;8.378;2023-04-08T02:42:19;13.63;;;8.23;;
35380;SDS011;21486;51.916;8.378;2023-04-08T02:44:45;12.10;;;8.73;;
35380;SDS011;21486;51.916;8.378;2023-04-08T02:47:10;12.00;;;8.30;;
35380;SDS011;21486;51.916;8.378;2023-04-08T02:49:36;13.90;;;8.00;;
35380;SDS011;21486;51.916;8.378;2023-04-08T02:52:02;14.68;;;8.40;;
35380;SDS011;21486;51.916;8.378;2023-04-08T02:54:28;11.65;;;8.10;;
35380;SDS011;21486;51.916;8.378;2023-04-08T02:56:53;11.30;;;7.53;;
35380;SDS011;21486;51.916;8.378;2023-04-08T02:59:19;12.93;;;8.20;;
35380;SDS011;21486;51.916;8.378;2023-04-08T03:01:44;12.07;;;7.55;;
35380;SDS011;21486;51.916;8.378;2023-04-08T03:04:10;12.40;;;7.53;;
35380;SDS011;21486;51.916;8.378;2023-04-08T03:06:35;13.17;;;7.50;;
35380;SDS011;21486;51.916;8.378;2023-04-08T03:09:01;11.17;;;7.33;;
35380;SDS011;21486;51.916;8.378;2023-04-08T03:11:26;13.53;;;8.00;;
35380;SDS011;21486;51.916;8.378;2023-04-08T03:13:52;13.30;;;7.55;;
35380;SDS011;21486;51.916;8.378;2023-04-08T03:16:17;10.80;;;7.30;;
35380;SDS011;21486;51.916;8.378;2023-04-08T03:18:43;12.07;;;7.40;;
35380;SDS011;21486;51.916;8.378;2023-04-08T03:21:09;11.23;;;7.30;;
35380;SDS011;21486;51.916;8.378;2023-04-08T03:23:34;10.80;;;7.20;;
35380;SDS011;21486;51.916;8.378;2023-04-08T03:26:00;11.87;;;7.07;;
35380;SDS011;21486;51.916;8.378;2023-04-08T03:28:25;10.63;;;6.55;;
35380;SDS011;21486;51.916;8.378;2023-04-08T03:30:51;11.77;;;6.50;;
35380;SDS011;21486;51.916;8.378;2023-04-08T03:33:16;9.45;;;6.18;;
35380;SDS011;21486;51.916;8.378;2023-04-08T03:35:42;8.93;;;6.57;;
35380;SDS011;21486;51.916;8.378;2023-04-08T03:38:07;8.03;;;6.17;;
35380;SDS011;21486;51.916;8.378;2023-04-08T03:40:33;8.50;;;6.63;;
35380;SDS011;21486;51.916;8.378;2023-04-08T03:42:58;8.50;;;6.60;;
35380;SDS011;21486;51.916;8.378;2023-04-08T03:45:24;12.15;;;7.18;;
35380;SDS011;21486;51.916;8.378;2023-04-08T03:47:50;9.07;;;6.40;;
35380;SDS011;21486;51.916;8.378;2023-04-08T03:50:18;9.53;;;6.80;;
35380;SDS011;21486;51.916;8.378;2023-04-08T03:52:44;9.73;;;6.77;;
35380;SDS011;21486;51.916;8.378;2023-04-08T03:55:10;9.67;;;6.20;;
35380;SDS011;21486;51.916;8.378;2023-04-08T03:57:35;8.87;;;6.63;;
35380;SDS011;21486;51.916;8.378;2023-04-08T04:00:01;9.23;;;6.47;;
35380;SDS011;21486;51.916;8.378;2023-04-08T04:02:26;9.85;;;6.63;;
35380;SDS011;21486;51.916;8.378;2023-04-08T04:04:52;11.15;;;6.80;;
35380;SDS011;21486;51.916;8.378;2023-04-08T04:07:17;9.30;;;6.97;;
35380;SDS011;21486;51.916;8.378;2023-04-08T04:09:43;10.80;;;6.77;;
35380;SDS011;21486;51.916;8.378;2023-04-08T04:12:08;9.23;;;6.70;;
35380;SDS011;21486;51.916;8.378;2023-04-08T04:14:34;10.10;;;7.10;;
35380;SDS011;21486;51.916;8.378;2023-04-08T04:16:59;10.55;;;7.40;;
35380;SDS011;21486;51.916;8.378;2023-04-08T04:19:28;10.90;;;7.20;;
35380;SDS011;21486;51.916;8.378;2023-04-08T04:21:55;12.13;;;7.93;;
35380;SDS011;21486;51.916;8.378;2023-04-08T04:24:20;14.00;;;8.02;;
35380;SDS011;21486;51.916;8.378;2023-04-08T04:26:46;11.60;;;8.07;;
35380;SDS011;21486;51.916;8.378;2023-04-08T04:29:11;11.27;;;8.13;;
35380;SDS011;21486;51.916;8.378;2023-04-08T04:31:37;11.20;;;7.90;;
35380;SDS011;21486;51.916;8.378;2023-04-08T04:34:02;12.40;;;8.77;;
35380;SDS011;21486;51.916;8.378;2023-04-08T04:36:28;12.00;;;8.60;;
35380;SDS011;21486;51.916;8.378;2023-04-08T04:38:55;11.93;;;8.20;;
35380;SDS011;21486;51.916;8.378;2023-04-08T04:41:20;11.88;;;8.68;;
35380;SDS011;21486;51.916;8.378;2023-04-08T04:43:46;13.10;;;9.35;;
35380;SDS011;21486;51.916;8.378;2023-04-08T04:46:11;15.10;;;9.50;;
35380;SDS011;21486;51.916;8.378;2023-04-08T04:48:37;14.00;;;9.60;;
35380;SDS011;21486;51.916;8.378;2023-04-08T04:51:03;13.87;;;9.83;;
35380;SDS011;21486;51.916;8.378;2023-04-08T04:53:29;13.80;;;9.85;;
35380;SDS011;21486;51.916;8.378;2023-04-08T04:55:55;15.25;;;10.38;;
35380;SDS011;21486;51.916;8.378;2023-04-08T04:58:21;15.20;;;10.43;;
35380;SDS011;21486;51.916;8.378;2023-04-08T05:00:46;17.03;;;10.67;;
35380;SDS011;21486;51.916;8.378;2023-04-08T05:03:12;15.52;;;10.52;;
35380;SDS011;21486;51.916;8.378;2023-04-08T05:05:37;13.73;;;10.50;;
35380;SDS011;21486;51.916;8.378;2023-04-08T05:08:03;17.48;;;11.48;;
35380;SDS011;21486;51.916;8.378;2023-04-08T05:10:29;15.77;;;11.55;;
35380;SDS011;21486;51.916;8.378;2023-04-08T05:12:55;15.68;;;11.57;;
35380;SDS011;21486;51.916;8.378;2023-04-08T05:15:20;16.20;;;11.02;;
35380;SDS011;21486;51.916;8.378;2023-04-08T05:17:46;19.38;;;12.25;;
35380;SDS011;21486;51.916;8.378;2023-04-08T05:20:11;16.60;;;11.83;;
35380;SDS011;21486;51.916;8.378;2023-04-08T05:22:37;15.90;;;12.50;;
35380;SDS011;21486;51.916;8.378;2023-04-08T05:25:03;18.80;;;13.03;;
35380;SDS011;21486;51.916;8.378;2023-04-08T05:27:29;18.27;;;12.77;;
35380;SDS011;21486;51.916;8.378;2023-04-08T05:29:55;19.77;;;13.03;;
35380;SDS011;21486;51.916;8.378;2023-04-08T05:32:21;16.50;;;12.67;;
35380;SDS011;21486;51.916;8.378;2023-04-08T05:34:46;20.00;;;13.70;;
35380;SDS011;21486;51.916;8.378;2023-04-08T05:37:12;20.90;;;13.82;;
35380;SDS011;21486;51.916;8.378;2023-04-08T05:39:37;20.95;;;13.50;;
35380;SDS011;21486;51.916;8.378;2023-04-08T05:42:03;20.90;;;14.13;;
35380;SDS011;21486;51.916;8.378;2023-04-08T05:44:29;20.20;;;14.07;;
35380;SDS011;21486;51.916;8.378;2023-04-08T05:46:54;19.13;;;13.80;;
35380;SDS011;21486;51.916;8.378;2023-04-08T05:49:21;20.63;;;13.03;;
35380;SDS011;21486;51.916;8.378;2023-04-08T05:51:47;20.00;;;13.43;;
35380;SDS011;21486;51.916;8.378;2023-04-08T05:54:12;20.50;;;14.00;;
35380;SDS011;21486;51.916;8.378;2023-04-08T05:56:38;18.27;;;12.37;;
35380;SDS011;21486;51.916;8.378;2023-04-08T05:59:03;20.23;;;12.68;;
35380;SDS011;21486;51.916;8.378;2023-04-08T06:01:29;17.77;;;12.10;;
35380;SDS011;21486;51.916;8.378;2023-04-08T06:03:55;18.33;;;12.57;;
35380;SDS011;21486;51.916;8.378;2023-04-08T06:06:21;18.33;;;12.43;;
35380;SDS011;21486;51.916;8.378;2023-04-08T06:08:47;17.67;;;11.52;;
35380;SDS011;21486;51.916;8.378;2023-04-08T06:11:12;15.93;;;11.30;;
35380;SDS011;21486;51.916;8.378;2023-04-08T06:13:38;16.53;;;11.20;;
35380;SDS011;21486;51.916;8.378;2023-04-08T06:16:13;16.33;;;11.37;;
35380;SDS011;21486;51.916;8.378;2023-04-08T06:18:41;15.60;;;10.80;;
35380;SDS011;21486;51.916;8.378;2023-04-08T06:21:07;16.27;;;10.68;;
35380;SDS011;21486;51.916;8.378;2023-04-08T06:23:32;15.60;;;10.50;;
35380;SDS011;21486;51.916;8.378;2023-04-08T06:25:58;16.73;;;11.00;;
35380;SDS011;21486;51.916;8.378;2023-04-08T06:28:23;14.33;;;10.30;;
35380;SDS011;21486;51.916;8.378;2023-04-08T06:30:49;17.00;;;11.27;;
35380;SDS011;21486;51.916;8.378;2023-04-08T06:33:14;15.25;;;10.60;;
35380;SDS011;21486;51.916;8.378;2023-04-08T06:35:40;14.85;;;10.45;;
35380;SDS011;21486;51.916;8.378;2023-04-08T06:38:06;16.00;;;10.60;;
35380;SDS011;21486;51.916;8.378;2023-04-08T06:40:31;15.15;;;9.60;;
35380;SDS011;21486;51.916;8.378;2023-04-08T06:42:57;17.17;;;10.40;;
35380;SDS011;21486;51.916;8.378;2023-04-08T06:45:22;15.23;;;10.27;;
35380;SDS011;21486;51.916;8.378;2023-04-08T06:47:48;15.63;;;9.73;;
35380;SDS011;21486;51.916;8.378;2023-04-08T06:50:14;13.43;;;9.33;;
35380;SDS011;21486;51.916;8.378;2023-04-08T06:52:39;12.82;;;9.38;;
35380;SDS011;21486;51.916;8.378;2023-04-08T06:55:05;18.95;;;9.48;;
35380;SDS011;21486;51.916;8.378;2023-04-08T06:57:31;15.00;;;10.00;;
35380;SDS011;21486;51.916;8.378;2023-04-08T06:59:56;14.32;;;9.95;;
35380;SDS011;21486;51.916;8.378;2023-04-08T07:02:24;14.32;;;9.52;;
35380;SDS011;21486;51.916;8.378;2023-04-08T07:04:50;15.45;;;10.05;;
35380;SDS011;21486;51.916;8.378;2023-04-08T07:07:15;17.45;;;9.98;;
35380;SDS011;21486;51.916;8.378;2023-04-08T07:09:41;18.92;;;10.85;;
35380;SDS011;21486;51.916;8.378;2023-04-08T07:12:09;14.52;;;10.52;;
35380;SDS011;21486;51.916;8.378;2023-04-08T07:14:35;16.03;;;10.60;;
35380;SDS011;21486;51.916;8.378;2023-04-08T07:17:01;15.33;;;10.77;;
35380;SDS011;21486;51.916;8.378;2023-04-08T07:19:26;16.70;;;10.70;;
35380;SDS011;21486;51.916;8.378;2023-04-08T07:21:52;16.03;;;10.83;;
35380;SDS011;21486;51.916;8.378;2023-04-08T07:24:18;14.93;;;10.32;;
35380;SDS011;21486;51.916;8.378;2023-04-08T07:26:43;17.13;;;10.60;;
35380;SDS011;21486;51.916;8.378;2023-04-08T07:29:09;16.98;;;10.68;;
35380;SDS011;21486;51.916;8.378;2023-04-08T07:31:34;15.18;;;10.57;;
35380;SDS011;21486;51.916;8.378;2023-04-08T07:34:00;16.67;;;10.45;;
35380;SDS011;21486;51.916;8.378;2023-04-08T07:36:26;15.15;;;10.32;;
35380;SDS011;21486;51.916;8.378;2023-04-08T07:38:52;18.42;;;11.55;;
35380;SDS011;21486;51.916;8.378;2023-04-08T07:41:17;16.02;;;10.30;;
35380;SDS011;21486;51.916;8.378;2023-04-08T07:43:43;15.25;;;10.15;;
35380;SDS011;21486;51.916;8.378;2023-04-08T07:46:08;16.17;;;10.07;;
35380;SDS011;21486;51.916;8.378;2023-04-08T07:48:34;17.00;;;10.47;;
35380;SDS011;21486;51.916;8.378;2023-04-08T07:51:03;16.17;;;10.93;;
35380;SDS011;21486;51.916;8.378;2023-04-08T07:53:32;17.38;;;10.98;;
35380;SDS011;21486;51.916;8.378;2023-04-08T07:55:58;18.43;;;11.90;;
35380;SDS011;21486;51.916;8.378;2023-04-08T07:58:25;19.70;;;11.70;;
35380;SDS011;21486;51.916;8.378;2023-04-08T08:00:50;17.23;;;11.60;;
35380;SDS011;21486;51.916;8.378;2023-04-08T08:03:16;16.63;;;11.35;;
35380;SDS011;21486;51.916;8.378;2023-04-08T08:05:42;17.80;;;11.37;;
35380;SDS011;21486;51.916;8.378;2023-04-08T08:08:08;17.93;;;11.13;;
35380;SDS011;21486;51.916;8.378;2023-04-08T08:10:36;16.02;;;11.05;;
35380;SDS011;21486;51.916;8.378;2023-04-08T08:13:02;16.65;;;11.30;;
35380;SDS011;21486;51.916;8.378;2023-04-08T08:15:28;20.60;;;12.40;;
35380;SDS011;21486;51.916;8.378;2023-04-08T08:17:53;18.23;;;11.90;;
35380;SDS011;21486;51.916;8.378;2023-04-08T08:20:19;17.60;;;11.48;;
35380;SDS011;21486;51.916;8.378;2023-04-08T08:22:45;17.17;;;10.98;;
35380;SDS011;21486;51.916;8.378;2023-04-08T08:25:10;16.15;;;10.98;;
35380;SDS011;21486;51.916;8.378;2023-04-08T08:27:36;16.60;;;11.20;;
35380;SDS011;21486;51.916;8.378;2023-04-08T08:30:02;16.50;;;11.47;;
35380;SDS011;21486;51.916;8.378;2023-04-08T08:32:28;15.43;;;10.85;;
35380;SDS011;21486;51.916;8.378;2023-04-08T08:34:53;15.97;;;11.10;;
35380;SDS011;21486;51.916;8.378;2023-04-08T08:37:19;16.73;;;10.73;;
35380;SDS011;21486;51.916;8.378;2023-04-08T08:39:45;15.20;;;10.35;;
35380;SDS011;21486;51.916;8.378;2023-04-08T08:42:20;15.63;;;10.83;;
35380;SDS011;21486;51.916;8.378;2023-04-08T08:44:47;15.63;;;10.20;;
35380;SDS011;21486;51.916;8.378;2023-04-08T08:47:13;15.02;;;10.30;;
35380;SDS011;21486;51.916;8.378;2023-04-08T08:49:39;16.03;;;10.00;;
35380;SDS011;21486;51.916;8.378;2023-04-08T08:52:05;14.87;;;10.67;;
35380;SDS011;21486;51.916;8.378;2023-04-08T08:54:31;17.27;;;10.80;;
35380;SDS011;21486;51.916;8.378;2023-04-08T08:56:56;16.23;;;10.20;;
35380;SDS011;21486;51.916;8.378;2023-04-08T08:59:22;15.75;;;10.88;;
35380;SDS011;21486;51.916;8.378;2023-04-08T09:01:47;16.08;;;10.85;;
35380;SDS011;21486;51.916;8.378;2023-04-08T09:06:44;16.90;;;10.95;;
35380;SDS011;21486;51.916;8.378;2023-04-08T09:09:11;16.23;;;11.52;;
35380;SDS011;21486;51.916;8.378;2023-04-08T09:11:46;19.92;;;11.30;;
35380;SDS011;21486;51.916;8.378;2023-04-08T09:16:51;17.15;;;10.85;;
35380;SDS011;21486;51.916;8.378;2023-04-08T09:19:17;14.63;;;11.10;;
35380;SDS011;21486;51.916;8.378;2023-04-08T09:21:43;18.00;;;10.70;;
35380;SDS011;21486;51.916;8.378;2023-04-08T09:24:09;17.98;;;10.90;;
35380;SDS011;21486;51.916;8.378;2023-04-08T09:26:54;14.77;;;10.23;;
35380;SDS011;21486;51.916;8.378;2023-04-08T09:29:20;15.40;;;10.27;;
35380;SDS011;21486;51.916;8.378;2023-04-08T09:31:48;14.15;;;9.77;;
35380;SDS011;21486;51.916;8.378;2023-04-08T09:34:18;15.25;;;10.25;;
35380;SDS011;21486;51.916;8.378;2023-04-08T09:36:45;14.48;;;9.85;;
35380;SDS011;21486;51.916;8.378;2023-04-08T09:39:13;14.45;;;10.27;;
35380;SDS011;21486;51.916;8.378;2023-04-08T09:41:39;15.00;;;10.57;;
35380;SDS011;21486;51.916;8.378;2023-04-08T09:44:07;14.35;;;10.18;;
35380;SDS011;21486;51.916;8.378;2023-04-08T09:51:58;16.00;;;10.60;;
35380;SDS011;21486;51.916;8.378;2023-04-08T09:57:10;18.27;;;11.20;;
35380;SDS011;21486;51.916;8.378;2023-04-08T09:59:42;15.02;;;10.70;;
35380;SDS011;21486;51.916;8.378;2023-04-08T10:02:12;14.85;;;10.43;;
35380;SDS011;21486;51.916;8.378;2023-04-08T10:04:41;17.17;;;10.80;;
35380;SDS011;21486;51.916;8.378;2023-04-08T10:07:11;17.02;;;10.80;;
35380;SDS011;21486;51.916;8.378;2023-04-08T10:09:38;16.40;;;11.20;;
35380;SDS011;21486;51.916;8.378;2023-04-08T10:12:07;18.38;;;11.15;;
35380;SDS011;21486;51.916;8.378;2023-04-08T10:14:33;18.63;;;11.93;;
35380;SDS011;21486;51.916;8.378;2023-04-08T10:19:52;22.20;;;12.50;;
35380;SDS011;21486;51.916;8.378;2023-04-08T10:22:44;17.02;;;12.13;;
35380;SDS011;21486;51.916;8.378;2023-04-08T10:27:43;20.17;;;13.37;;
35380;SDS011;21486;51.916;8.378;2023-04-08T10:32:50;19.77;;;12.68;;
35380;SDS011;21486;51.916;8.378;2023-04-08T10:35:16;21.05;;;14.30;;
35380;SDS011;21486;51.916;8.378;2023-04-08T10:37:42;22.27;;;13.95;;
35380;SDS011;21486;51.916;8.378;2023-04-08T10:40:17;23.08;;;14.10;;
35380;SDS011;21486;51.916;8.378;2023-04-08T10:42:43;22.70;;;14.57;;
35380;SDS011;21486;51.916;8.378;2023-04-08T10:45:09;26.38;;;15.15;;
35380;SDS011;21486;51.916;8.378;2023-04-08T10:47:34;22.23;;;14.32;;
35380;SDS011;21486;51.916;8.378;2023-04-08T10:50:00;25.75;;;15.10;;
35380;SDS011;21486;51.916;8.378;2023-04-08T10:52:45;23.10;;;14.65;;
35380;SDS011;21486;51.916;8.378;2023-04-08T10:55:14;24.15;;;14.25;;
35380;SDS011;21486;51.916;8.378;2023-04-08T10:57:40;24.52;;;15.25;;
35380;SDS011;21486;51.916;8.378;2023-04-08T11:00:09;20.98;;;14.13;;
35380;SDS011;21486;51.916;8.378;2023-04-08T11:02:38;24.17;;;15.15;;
35380;SDS011;21486;51.916;8.378;2023-04-08T11:05:04;26.02;;;15.18;;
35380;SDS011;21486;51.916;8.378;2023-04-08T11:07:31;23.70;;;15.15;;
35380;SDS011;21486;51.916;8.378;2023-04-08T11:09:56;24.85;;;14.60;;
35380;SDS011;21486;51.916;8.378;2023-04-08T11:12:26;25.63;;;15.48;;
35380;SDS011;21486;51.916;8.378;2023-04-08T11:14:52;24.15;;;15.30;;
35380;SDS011;21486;51.916;8.378;2023-04-08T11:17:18;25.40;;;15.20;;
35380;SDS011;21486;51.916;8.378;2023-04-08T11:19:44;27.03;;;15.90;;
35380;SDS011;21486;51.916;8.378;2023-04-08T11:22:11;23.15;;;15.15;;
35380;SDS011;21486;51.916;8.378;2023-04-08T11:24:37;24.37;;;15.10;;
35380;SDS011;21486;51.916;8.378;2023-04-08T11:27:03;23.67;;;14.50;;
35380;SDS011;21486;51.916;8.378;2023-04-08T11:29:30;24.15;;;15.27;;
35380;SDS011;21486;51.916;8.378;2023-04-08T11:31:57;25.85;;;15.32;;
35380;SDS011;21486;51.916;8.378;2023-04-08T11:34:23;22.60;;;14.68;;
35380;SDS011;21486;51.916;8.378;2023-04-08T11:36:52;28.38;;;15.88;;
35380;SDS011;21486;51.916;8.378;2023-04-08T11:39:20;24.57;;;15.90;;
35380;SDS011;21486;51.916;8.378;2023-04-08T11:41:47;26.30;;;16.50;;
35380;SDS011;21486;51.916;8.378;2023-04-08T11:44:14;27.65;;;16.25;;
35380;SDS011;21486;51.916;8.378;2023-04-08T11:46:39;28.08;;;17.17;;
35380;SDS011;21486;51.916;8.378;2023-04-08T11:49:06;26.17;;;16.75;;
35380;SDS011;21486;51.916;8.378;2023-04-08T11:51:33;29.73;;;17.20;;
35380;SDS011;21486;51.916;8.378;2023-04-08T11:54:03;30.55;;;16.75;;
35380;SDS011;21486;51.916;8.378;2023-04-08T11:56:30;25.35;;;16.30;;
35380;SDS011;21486;51.916;8.378;2023-04-08T11:59:08;25.27;;;16.93;;
35380;SDS011;21486;51.916;8.378;2023-04-08T12:01:33;27.37;;;17.10;;
35380;SDS011;21486;51.916;8.378;2023-04-08T12:03:59;25.65;;;15.85;;
35380;SDS011;21486;51.916;8.378;2023-04-08T12:06:26;27.50;;;16.90;;
35380;SDS011;21486;51.916;8.378;2023-04-08T12:08:53;27.08;;;16.48;;
35380;SDS011;21486;51.916;8.378;2023-04-08T12:11:19;25.33;;;16.30;;
35380;SDS011;21486;51.916;8.378;2023-04-08T12:13:44;26.17;;;16.60;;
35380;SDS011;21486;51.916;8.378;2023-04-08T12:16:10;26.50;;;17.20;;
35380;SDS011;21486;51.916;8.378;2023-04-08T12:18:36;25.27;;;16.77;;
35380;SDS011;21486;51.916;8.378;2023-04-08T12:21:02;24.55;;;15.95;;
35380;SDS011;21486;51.916;8.378;2023-04-08T12:23:27;26.50;;;15.77;;
35380;SDS011;21486;51.916;8.378;2023-04-08T12:25:53;26.30;;;16.47;;
35380;SDS011;21486;51.916;8.378;2023-04-08T12:28:18;25.13;;;16.67;;
35380;SDS011;21486;51.916;8.378;2023-04-08T12:30:44;27.77;;;16.15;;
35380;SDS011;21486;51.916;8.378;2023-04-08T12:33:10;28.67;;;17.17;;
35380;SDS011;21486;51.916;8.378;2023-04-08T12:35:36;28.57;;;17.47;;
35380;SDS011;21486;51.916;8.378;2023-04-08T12:38:01;27.73;;;16.85;;
35380;SDS011;21486;51.916;8.378;2023-04-08T12:40:27;29.58;;;17.77;;
35380;SDS011;21486;51.916;8.378;2023-04-08T12:42:52;27.83;;;17.43;;
35380;SDS011;21486;51.916;8.378;2023-04-08T12:45:18;28.97;;;17.63;;
35380;SDS011;21486;51.916;8.378;2023-04-08T12:47:43;24.48;;;16.70;;
35380;SDS011;21486;51.916;8.378;2023-04-08T12:50:09;27.42;;;16.45;;
35380;SDS011;21486;51.916;8.378;2023-04-08T12:52:35;27.27;;;16.70;;
35380;SDS011;21486;51.916;8.378;2023-04-08T12:55:00;28.07;;;16.67;;
35380;SDS011;21486;51.916;8.378;2023-04-08T12:57:26;27.13;;;17.07;;
35380;SDS011;21486;51.916;8.378;2023-04-08T12:59:52;27.07;;;16.80;;
35380;SDS011;21486;51.916;8.378;2023-04-08T13:02:18;27.37;;;17.17;;
35380;SDS011;21486;51.916;8.378;2023-04-08T13:04:43;29.13;;;17.37;;
35380;SDS011;21486;51.916;8.378;2023-04-08T13:07:09;27.30;;;17.02;;
35380;SDS011;21486;51.916;8.378;2023-04-08T13:09:34;31.42;;;18.40;;
35380;SDS011;21486;51.916;8.378;2023-04-08T13:12:00;29.17;;;16.97;;
35380;SDS011;21486;51.916;8.378;2023-04-08T13:14:26;29.43;;;17.37;;
35380;SDS011;21486;51.916;8.378;2023-04-08T13:16:51;29.57;;;18.30;;
35380;SDS011;21486;51.916;8.378;2023-04-08T13:19:17;32.00;;;19.05;;
35380;SDS011;21486;51.916;8.378;2023-04-08T13:21:42;32.30;;;18.92;;
35380;SDS011;21486;51.916;8.378;2023-04-08T13:24:08;31.97;;;17.93;;
35380;SDS011;21486;51.916;8.378;2023-04-08T13:26:33;29.20;;;18.10;;
35380;SDS011;21486;51.916;8.378;2023-04-08T13:28:59;31.65;;;18.35;;
35380;SDS011;21486;51.916;8.378;2023-04-08T13:31:24;33.17;;;19.33;;
35380;SDS011;21486;51.916;8.378;2023-04-08T13:33:50;31.73;;;18.60;;
35380;SDS011;21486;51.916;8.378;2023-04-08T13:36:15;31.87;;;19.10;;
35380;SDS011;21486;51.916;8.378;2023-04-08T13:38:41;31.67;;;19.37;;
35380;SDS011;21486;51.916;8.378;2023-04-08T13:41:07;33.05;;;19.13;;
35380;SDS011;21486;51.916;8.378;2023-04-08T13:43:33;35.10;;;19.40;;
35380;SDS011;21486;51.916;8.378;2023-04-08T13:45:58;31.55;;;19.58;;
35380;SDS011;21486;51.916;8.378;2023-04-08T13:48:24;31.45;;;18.67;;
35380;SDS011;21486;51.916;8.378;2023-04-08T13:50:49;32.87;;;19.17;;
35380;SDS011;21486;51.916;8.378;2023-04-08T13:53:15;33.60;;;19.77;;
35380;SDS011;21486;51.916;8.378;2023-04-08T13:55:41;33.97;;;20.00;;
35380;SDS011;21486;51.916;8.378;2023-04-08T13:58:06;34.87;;;20.07;;
35380;SDS011;21486;51.916;8.378;2023-04-08T14:00:32;36.00;;;20.90;;
35380;SDS011;21486;51.916;8.378;2023-04-08T14:02:57;32.78;;;19.75;;
35380;SDS011;21486;51.916;8.378;2023-04-08T14:05:23;31.83;;;19.33;;
35380;SDS011;21486;51.916;8.378;2023-04-08T14:07:48;32.90;;;19.40;;
35380;SDS011;21486;51.916;8.378;2023-04-08T14:10:14;35.03;;;19.33;;
35380;SDS011;21486;51.916;8.378;2023-04-08T14:12:41;33.38;;;20.08;;
35380;SDS011;21486;51.916;8.378;2023-04-08T14:15:07;32.73;;;20.47;;
35380;SDS011;21486;51.916;8.378;2023-04-08T14:17:33;35.53;;;20.30;;
35380;SDS011;21486;51.916;8.378;2023-04-08T14:20:00;33.22;;;19.95;;
35380;SDS011;21486;51.916;8.378;2023-04-08T14:22:25;34.22;;;19.95;;
35380;SDS011;21486;51.916;8.378;2023-04-08T14:24:51;31.73;;;19.10;;
35380;SDS011;21486;51.916;8.378;2023-04-08T14:27:16;33.83;;;20.07;;
35380;SDS011;21486;51.916;8.378;2023-04-08T14:29:42;33.60;;;20.25;;
35380;SDS011;21486;51.916;8.378;2023-04-08T14:32:07;32.97;;;19.93;;
35380;SDS011;21486;51.916;8.378;2023-04-08T14:34:33;35.40;;;19.90;;
35380;SDS011;21486;51.916;8.378;2023-04-08T14:36:58;32.47;;;19.63;;
35380;SDS011;21486;51.916;8.378;2023-04-08T14:39:24;33.63;;;19.17;;
35380;SDS011;21486;51.916;8.378;2023-04-08T14:41:49;31.93;;;19.53;;
35380;SDS011;21486;51.916;8.378;2023-04-08T14:44:15;31.73;;;19.77;;
35380;SDS011;21486;51.916;8.378;2023-04-08T14:46:40;33.77;;;20.53;;
35380;SDS011;21486;51.916;8.378;2023-04-08T14:49:06;33.17;;;20.23;;
35380;SDS011;21486;51.916;8.378;2023-04-08T14:51:32;31.00;;;18.92;;